Flight Track Log - Related Links

Times and Time Zones

All times are in EDT time to prevent confusion due to time zone crossing. See the FLG3408 flight status page for this flight to view local times or setup timezone preferences in your user account.

Time Position Orientation Groundspeed Altitude Reporting Facility
EDT Latitude Longitude Course Direction KTS MPH feet Rate Location/Type
Wed 06:37:47 AM 39.0500 -84.7000 270° West 167 192 1,800  Level Cincinnati TRACON
Wed 06:38:18 AM 39.0500 -84.7167 270° West 166 191 3,000 2,200 Climbing Cincinnati TRACON
Wed 06:39:17 AM 39.1000 -84.7500 333° Northwest 254 292 5,100 2,370 Climbing Cincinnati TRACON
Wed 06:40:17 AM 39.1589 -84.7292 15° North 276 318 7,700 2,750 Climbing Indianapolis Center
Wed 06:41:17 AM 39.2389 -84.7003 16° North 292 336 10,600 2,231 Climbing Indianapolis Center
Wed 06:42:18 AM 39.3344 -84.6703 14° North 339 390 12,200 1,721 Climbing Indianapolis Center
Wed 06:43:19 AM 39.4433 -84.6350 14° North 389 448 14,100 2,066 Climbing Indianapolis Center
Wed 06:44:20 AM 39.5581 -84.5983 14° North 413 475 16,400 2,083 Climbing Indianapolis Center
Wed 06:45:20 AM 39.6725 -84.5494 18° North 426 490 18,300 1,835 Climbing Indianapolis Center
Wed 06:46:21 AM 39.7906 -84.4972 19° North 439 505 20,100 1,820 Climbing Indianapolis Center
Wed 06:47:22 AM 39.9108 -84.4444 19° North 448 516 22,000 1,426 Climbing Indianapolis Center
Wed 06:48:23 AM 40.0369 -84.4000 15° North 461 531 23,000 492 Climbing Indianapolis Center
Wed 06:49:24 AM 40.1719 -84.4014 360° North 479 551 23,000  Level Indianapolis Center
Wed 06:50:24 AM 40.3036 -84.4061 358° North 472 543 23,000  Level Indianapolis Center
Wed 06:51:25 AM 40.4353 -84.4092 359° North 468 539 23,000  Level Indianapolis Center
Wed 06:52:26 AM 40.5650 -84.4117 359° North 464 534 23,000  Level Indianapolis Center
Wed 06:53:27 AM 40.6950 -84.4158 359° North 463 533 23,000  Level Indianapolis Center
Wed 06:54:28 AM 40.8222 -84.4200 359° North 457 526 23,000  Level Indianapolis Center
Wed 06:55:29 AM 40.9497 -84.4225 359° North 455 524 23,000 -446 Level Indianapolis Center
Wed 06:56:29 AM 41.0786 -84.4272 358° North 458 527 22,100 -1,140 Descending Indianapolis Center
Wed 06:57:30 AM 41.2067 -84.4297 359° North 457 526 20,700 -1,453 Descending Indianapolis Center
Wed 06:58:04 AM 41.2803 -84.4325 358° North 451 519 19,800 -1,404 Descending Cleveland Center
Wed 06:59:04 AM 41.3992 -84.4283 North 437 503 18,500 -1,250 Descending Cleveland Center
Wed 07:00:04 AM 41.4978 -84.3456 32° Northeast 400 460 17,300 -1,389 Descending Cleveland Center
Wed 07:00:52 AM 41.5753 -84.2694 36° Northeast 414 476 16,000 -1,625 Descending Cleveland Center
Wed 07:01:40 AM 41.6569 -84.1992 33° Northeast 412 474 14,700 -1,500 Descending Cleveland Center
Wed 07:02:48 AM 41.7578 -84.1103 33° Northeast 405 466 13,100 -1,157 Descending Cleveland Center
Wed 07:04:00 AM 41.8550 -83.9928 42° Northeast 380 437 12,000 -485 Descending Cleveland Center
Wed 07:05:04 AM 41.9211 -83.8736 53° Northeast 371 427 12,000  Level Cleveland Center
Wed 07:05:50 AM 41.9736 -83.7869 51° Northeast 376 433 12,000 -212 Level Cleveland Center
Wed 07:06:57 AM 42.0447 -83.7036 41° Northeast 279 321 11,600 -448 Descending Cleveland Center
Wed 07:08:04 AM 42.1069 -83.6367 39° Northeast 286 329 11,000 -283 Descending Cleveland Center
Wed 07:09:04 AM 42.1628 -83.5750 39° Northeast 266 306 11,000  Level Cleveland Center
Wed 07:10:04 AM 42.2186 -83.5158 38° Northeast 256 295 11,000 -195 Level Cleveland Center
Wed 07:11:07 AM 42.2864 -83.4658 29° Northeast 263 303 10,600 -774 Descending Cleveland Center
Wed 07:12:08 AM 42.3561 -83.4353 18° North 250 288 9,400 -1,279 Descending Cleveland Center
Wed 07:13:09 AM 42.4214 -83.4044 19° North 250 288 8,000 -1,180 Descending Cleveland Center
Wed 07:14:10 AM 42.4869 -83.3708 21° North 249 287 7,000 -517 Descending Cleveland Center
Wed 07:15:05 AM 42.5458 -83.3422 20° North 228 262 7,000 -517 Level Cleveland Center
Wed 07:16:06 AM 42.5986 -83.3192 18° North 201 231 6,000 -1,279 Descending Cleveland Center
Wed 07:17:07 AM 42.5961 -83.2486 93° East 196 226 4,400 -984 Descending Cleveland Center
Wed 07:18:08 AM 42.5556 -83.1961 136° Southeast 180 207 4,000 -195 Descending Cleveland Center
Wed 07:19:10 AM 42.5103 -83.1717 158° South 176 203 4,000  Level Cleveland Center
Wed 07:20:11 AM 42.4642 -83.1811 189° South 171 197 4,000  Level Cleveland Center
Wed 07:21:12 AM 42.4219 -83.2103 207° Southwest 171 197 4,000 -49 Level Cleveland Center
Wed 07:22:13 AM 42.3794 -83.2422 209° Southwest 166 191 3,900 -541 Descending Cleveland Center
Wed 07:23:14 AM 42.3369 -83.2714 207° Southwest 163 188 2,900 -885 Descending Cleveland Center
Wed 07:24:15 AM 42.3008 -83.3036 213° Southwest 160 184 2,100 -738 Descending Cleveland Center
Wed 07:25:16 AM 42.2669 -83.3275 208° Southwest 125 144 1,400 -639 Descending Cleveland Center
Wed 07:26:17 AM 42.2331 -83.3483 204° Southwest 129 148 800 -590 Descending Cleveland Center

Login

Don't have an account? Register now (free) for customized features, flight alerts, and more!